Time;durP1;ratioP1;P1;durP2;ratioP2;P2;SDS_P1;SDS_P2;PMS_P1;PMS_P2;Temp;Humidity;BMP_temperature;BMP_pressure;BME280_temperature;BME280_humidity;BME280_pressure;Samples;Min_cycle;Max_cycle;Signal;HPM_P1;HPM_P2
2022/09/10 00:01:39;;;;;;;;;11.67;11.00;;;;;19.61;100.00;99261.03;6309061;20;3518075;-55
2022/09/10 00:04:13;;;;;;;;;12.67;12.67;;;;;19.62;100.00;99265.50;6305304;20;3528598;-52
2022/09/10 00:06:43;;;;;;;;;11.00;11.00;;;;;19.53;100.00;99270.03;6309818;20;3522246;-53
2022/09/10 00:09:13;;;;;;;;;13.00;11.00;;;;;19.58;100.00;99266.81;6311373;20;2789882;-54
2022/09/10 00:11:42;;;;;;;;;13.00;11.67;;;;;19.52;100.00;99265.59;6310857;20;3513781;-54
2022/09/10 00:14:19;;;;;;;;;13.00;13.00;;;;;19.48;100.00;99268.81;6278457;20;3527318;-53
2022/09/10 00:16:49;;;;;;;;;14.50;14.50;;;;;19.28;100.00;99263.59;6277784;20;2801325;-50
2022/09/10 00:19:18;;;;;;;;;15.67;14.67;;;;;19.35;100.00;99261.06;6279610;20;3531569;-56
2022/09/10 00:21:49;;;;;;;;;13.67;13.67;;;;;19.37;100.00;99269.94;6281666;20;3533615;-51
2022/09/10 00:24:18;;;;;;;;;17.67;16.67;;;;;19.22;100.00;99277.00;6286210;20;3566034;-56
2022/09/10 00:26:47;;;;;;;;;18.33;16.00;;;;;19.15;100.00;99274.06;6281554;20;2483867;-52
2022/09/10 00:29:16;;;;;;;;;14.00;13.00;;;;;19.15;100.00;99275.94;6316123;20;3528343;-52
2022/09/10 00:31:45;;;;;;;;;17.67;16.33;;;;;19.01;100.00;99278.22;6287224;20;3552326;-51
2022/09/10 00:34:14;;;;;;;;;14.67;14.67;;;;;19.30;100.00;99279.78;6319300;20;3535718;-51
2022/09/10 00:36:43;;;;;;;;;16.67;14.33;;;;;19.16;100.00;99272.19;6313747;20;3536807;-53
2022/09/10 00:39:17;;;;;;;;;16.00;13.00;;;;;19.01;100.00;99264.63;6282613;20;3560639;-52
2022/09/10 00:41:47;;;;;;;;;12.33;11.00;;;;;19.27;100.00;99255.59;6283393;20;3512738;-50
2022/09/10 00:44:39;;;;;;;;;14.00;14.00;;;;;19.12;100.00;99236.28;6314929;20;2492021;-55
2022/09/10 00:47:37;;;;;;;;;14.00;14.00;;;;;19.17;100.00;99236.66;6282560;20;3528403;-50
2022/09/10 00:50:28;;;;;;;;;14.67;14.67;;;;;19.24;100.00;99232.25;6316943;20;3524214;-50
2022/09/10 00:53:05;;;;;;;;;18.50;18.50;;;;;19.10;100.00;99242.91;6310350;20;2834811;-51
2022/09/10 00:55:37;;;;;;;;;15.50;15.00;;;;;19.06;100.00;99245.94;6279452;20;2808674;-54
2022/09/10 00:58:08;;;;;;;;;19.00;18.00;;;;;18.95;100.00;99245.34;6281423;20;2828374;-50
2022/09/10 01:00:40;;;;;;;;;16.00;15.50;;;;;19.04;100.00;99236.25;6282792;20;2487848;-48
2022/09/10 01:03:12;;;;;;;;;17.50;17.00;;;;;19.14;100.00;99225.22;6283031;20;2835725;-50
2022/09/10 01:05:45;;;;;;;;;19.00;19.00;;;;;19.07;100.00;99223.16;6277403;20;2836799;-50
2022/09/10 01:08:16;;;;;;;;;19.00;18.00;;;;;18.92;100.00;99222.03;6279657;20;2483595;-50
2022/09/10 01:11:48;;;;;;;;;20.00;17.50;;;;;18.92;100.00;99226.63;6282953;20;2835772;-50
2022/09/10 01:14:57;;;;;;;;;20.00;17.50;;;;;18.98;100.00;99209.66;6280846;20;2837806;-52
2022/09/10 01:18:16;;;;;;;;;17.50;17.50;;;;;18.82;100.00;99213.09;6280486;20;2837764;-52
2022/09/10 01:21:22;;;;;;;;;18.50;18.00;;;;;18.82;100.00;99216.69;6282359;20;2834818;-55
2022/09/10 01:24:23;;;;;;;;;21.00;21.00;;;;;18.68;100.00;99197.34;6278072;20;2826402;-53
2022/09/10 01:27:44;;;;;;;;;21.50;20.50;;;;;18.71;100.00;99202.47;6279480;20;2836935;-49
2022/09/10 01:30:40;;;;;;;;;18.00;17.00;;;;;18.64;100.00;99194.06;6280986;20;2833586;-51
2022/09/10 01:33:36;;;;;;;;;18.67;17.00;;;;;18.86;100.00;99192.75;6279824;20;2483646;-52
2022/09/10 01:36:24;;;;;;;;;20.67;18.00;;;;;18.75;100.00;99193.88;6311018;20;3577605;-51
2022/09/10 01:38:54;;;;;;;;;20.00;17.33;;;;;18.79;100.00;99191.69;6279046;20;2842137;-55
2022/09/10 01:41:24;;;;;;;;;18.00;18.00;;;;;18.68;100.00;99171.00;6312802;20;3572225;-54
2022/09/10 01:43:53;;;;;;;;;18.50;18.00;;;;;18.67;100.00;99169.31;6277934;20;2835686;-55
2022/09/10 01:46:59;;;;;;;;;17.50;17.50;;;;;18.81;100.00;99174.19;6279695;20;2833702;-60
2022/09/10 01:50:22;;;;;;;;;17.00;17.00;;;;;18.78;100.00;99166.34;6278719;20;2832830;-60
2022/09/10 01:53:29;;;;;;;;;16.50;16.50;;;;;18.80;100.00;99164.31;6279588;20;2833719;-60
2022/09/10 01:56:24;;;;;;;;;18.00;18.00;;;;;18.82;100.00;99172.31;6280741;20;2836844;-60
2022/09/10 01:59:22;;;;;;;;;18.00;18.00;;;;;18.80;100.00;99175.22;6278119;20;3570011;-59
2022/09/10 02:02:21;;;;;;;;;19.50;18.00;;;;;18.78;100.00;99177.22;6273999;20;2831530;-59
2022/09/10 02:04:52;;;;;;;;;19.00;17.50;;;;;18.63;100.00;99182.34;6278456;20;2831515;-59
2022/09/10 02:07:25;;;;;;;;;20.00;17.00;;;;;18.67;100.00;99191.06;6276783;20;2837848;-59
2022/09/10 02:09:54;;;;;;;;;20.67;20.67;;;;;18.59;100.00;99189.13;6316778;20;3578359;-59
2022/09/10 02:12:23;;;;;;;;;21.00;18.33;;;;;18.60;100.00;99190.81;6281390;20;3577320;-59
2022/09/10 02:14:56;;;;;;;;;18.00;17.00;;;;;18.61;100.00;99186.22;6279274;20;2828373;-60
2022/09/10 02:17:36;;;;;;;;;18.67;18.00;;;;;18.50;100.00;99164.75;6276655;20;2491934;-59
2022/09/10 02:20:13;;;;;;;;;18.33;18.33;;;;;18.42;100.00;99160.94;6312873;20;3559606;-59
2022/09/10 02:22:51;;;;;;;;;20.50;19.00;;;;;18.58;100.00;99154.78;6278974;20;2839840;-59
2022/09/10 02:25:20;;;;;;;;;17.00;17.00;;;;;18.72;100.00;99149.75;6281479;20;3564928;-59
2022/09/10 02:27:48;;;;;;;;;18.50;18.50;;;;;18.64;100.00;99136.97;6276749;20;2841951;-60
2022/09/10 02:30:19;;;;;;;;;18.00;18.00;;;;;18.69;100.00;99134.63;6282332;20;2831534;-59
2022/09/10 02:32:47;;;;;;;;;20.00;18.33;;;;;18.57;100.00;99142.19;6284455;20;3570043;-60
2022/09/10 02:35:16;;;;;;;;;19.50;17.50;;;;;18.50;100.00;99135.69;6276791;20;2835686;-60
2022/09/10 02:37:44;;;;;;;;;21.33;19.33;;;;;18.35;100.00;99142.69;6281312;20;3573139;-60
2022/09/10 02:40:13;;;;;;;;;17.00;15.50;;;;;18.52;100.00;99144.53;6280333;20;2819189;-60
2022/09/10 02:42:45;;;;;;;;;18.00;15.00;;;;;18.51;100.00;99136.53;6295862;20;3558604;-60
2022/09/10 02:45:15;;;;;;;;;19.00;17.50;;;;;18.48;100.00;99136.84;6311362;20;2827370;-60
2022/09/10 02:47:43;;;;;;;;;21.50;18.50;;;;;18.51;100.00;99128.38;6277398;20;2835825;-60
2022/09/10 02:50:12;;;;;;;;;18.00;18.00;;;;;18.51;100.00;99121.09;6282553;20;2827471;-60
2022/09/10 02:52:41;;;;;;;;;17.50;16.50;;;;;18.48;100.00;99135.00;6279874;20;2831547;-60
2022/09/10 02:55:11;;;;;;;;;20.50;18.50;;;;;18.34;100.00;99138.28;6282061;20;2837899;-60
2022/09/10 02:57:39;;;;;;;;;18.00;18.00;;;;;18.36;100.00;99141.72;6280524;20;2554413;-60
2022/09/10 03:00:09;;;;;;;;;22.50;21.00;;;;;18.21;100.00;99144.13;6279968;20;2848887;-60
2022/09/10 03:02:39;;;;;;;;;21.50;19.00;;;;;18.16;100.00;99139.16;6279703;20;2840021;-59
2022/09/10 03:05:08;;;;;;;;;20.00;20.00;;;;;18.08;100.00;99141.78;6280105;20;2828462;-60
2022/09/10 03:07:37;;;;;;;;;19.00;19.00;;;;;18.11;100.00;99140.63;6280045;20;2839893;-60
2022/09/10 03:10:07;;;;;;;;;17.00;16.00;;;;;18.01;100.00;99134.41;6281226;20;2833707;-60
2022/09/10 03:12:35;;;;;;;;;20.00;17.00;;;;;17.94;100.00;99136.91;6280583;20;2829422;-60
2022/09/10 03:15:06;;;;;;;;;17.50;17.50;;;;;18.05;100.00;99135.84;6280477;20;2831594;-59
2022/09/10 03:17:34;;;;;;;;;17.00;17.00;;;;;18.09;100.00;99124.50;6280186;20;2826481;-59
2022/09/10 03:20:05;;;;;;;;;20.33;19.33;;;;;18.07;100.00;99118.38;6276858;20;2842031;-60
2022/09/10 03:22:34;;;;;;;;;18.00;17.00;;;;;18.06;100.00;99127.53;6316873;20;3566991;-60
2022/09/10 03:25:04;;;;;;;;;21.00;19.50;;;;;17.88;100.00;99129.41;6277306;20;2843536;-60
2022/09/10 03:27:33;;;;;;;;;19.33;16.33;;;;;17.83;100.00;99126.28;6280553;20;3566960;-60
2022/09/10 03:30:02;;;;;;;;;21.00;18.50;;;;;18.10;100.00;99134.34;6309886;20;2829436;-60
2022/09/10 03:32:31;;;;;;;;;19.00;19.00;;;;;18.02;100.00;99122.56;6281304;20;2839872;-61
2022/09/10 03:34:59;;;;;;;;;22.33;21.00;;;;;18.10;100.00;99122.63;6283598;20;3565026;-59
2022/09/10 03:37:30;;;;;;;;;20.33;18.33;;;;;17.88;100.00;99119.38;6278121;20;2833622;-60
2022/09/10 03:39:59;;;;;;;;;25.00;20.00;;;;;18.10;100.00;99139.78;6311546;20;2847227;-60
2022/09/10 03:42:28;;;;;;;;;22.50;20.50;;;;;18.03;100.00;99148.72;6307738;20;2844051;-52
2022/09/10 03:44:56;;;;;;;;;21.50;21.50;;;;;17.99;100.00;99142.75;6279644;20;2844033;-52
2022/09/10 03:47:26;;;;;;;;;20.33;20.33;;;;;18.09;100.00;99140.81;6275984;20;2846247;-55
2022/09/10 03:49:55;;;;;;;;;18.67;18.00;;;;;18.18;100.00;99142.56;6313976;20;3565839;-51
2022/09/10 03:52:25;;;;;;;;;17.00;17.00;;;;;18.23;100.00;99141.25;6278253;20;2832545;-54
2022/09/10 03:54:55;;;;;;;;;20.33;18.33;;;;;18.25;100.00;99128.38;6277177;20;2841994;-56
2022/09/10 03:57:24;;;;;;;;;18.00;17.00;;;;;18.08;100.00;99125.50;6312477;20;3568981;-52
2022/09/10 03:59:53;;;;;;;;;21.67;21.67;;;;;18.10;100.00;99125.34;6276757;20;3571186;-51
2022/09/10 04:02:21;;;;;;;;;19.00;17.00;;;;;18.10;100.00;99123.47;6280624;20;2839830;-50
2022/09/10 04:04:50;;;;;;;;;17.00;17.00;;;;;18.14;100.00;99126.72;6280867;20;2839868;-54
2022/09/10 04:07:20;;;;;;;;;16.00;16.00;;;;;18.18;100.00;99131.69;6280698;20;3559650;-53
2022/09/10 04:09:48;;;;;;;;;19.33;18.33;;;;;17.99;100.00;99138.16;6313068;20;3565968;-54
2022/09/10 04:12:17;;;;;;;;;17.00;15.00;;;;;18.03;100.00;99138.69;6277870;20;2814961;-52
2022/09/10 04:14:45;;;;;;;;;18.50;17.00;;;;;18.10;100.00;99137.06;6279006;20;2837753;-54
2022/09/10 04:17:14;;;;;;;;;15.00;13.00;;;;;18.09;100.00;99143.53;6276571;20;3514835;-51
2022/09/10 04:19:43;;;;;;;;;20.00;17.33;;;;;18.07;100.00;99145.53;6274685;20;2491990;-55
2022/09/10 04:22:12;;;;;;;;;17.67;16.67;;;;;18.16;100.00;99155.44;6312903;20;3563797;-51
2022/09/10 04:24:41;;;;;;;;;20.00;19.50;;;;;18.12;100.00;99159.50;6308236;20;2839883;-54
2022/09/10 04:27:09;;;;;;;;;21.00;17.00;;;;;18.05;100.00;99168.44;6277495;20;2834674;-50
2022/09/10 04:29:38;;;;;;;;;21.50;18.50;;;;;18.07;100.00;99153.69;6280340;20;2833596;-53
2022/09/10 04:32:08;;;;;;;;;20.67;19.33;;;;;18.12;100.00;99139.66;6277699;20;2850694;-53
2022/09/10 04:34:36;;;;;;;;;23.67;22.00;;;;;18.06;100.00;99130.25;6312052;20;3577401;-51
2022/09/10 04:37:05;;;;;;;;;21.50;19.00;;;;;18.07;100.00;99131.09;6277518;20;2831535;-53
2022/09/10 04:39:33;;;;;;;;;21.00;21.00;;;;;18.25;100.00;99141.97;6282291;20;3583559;-50
2022/09/10 04:42:08;;;;;;;;;21.67;21.67;;;;;18.28;100.00;99141.66;6274810;20;2840089;-55
2022/09/10 04:44:37;;;;;;;;;22.00;20.67;;;;;18.26;100.00;99136.34;6312982;20;3573163;-53
2022/09/10 04:47:05;;;;;;;;;22.00;20.50;;;;;18.29;100.00;99146.06;6275339;20;2835731;-50
2022/09/10 04:49:34;;;;;;;;;21.33;21.33;;;;;18.21;100.00;99153.13;6278309;20;3567006;-55
2022/09/10 04:52:03;;;;;;;;;26.00;23.00;;;;;17.98;100.00;99144.63;6275158;20;2835838;-54
2022/09/10 04:54:33;;;;;;;;;25.67;22.00;;;;;18.09;100.00;99151.66;6277147;20;2838977;-50
2022/09/10 04:57:01;;;;;;;;;23.00;21.67;;;;;18.21;100.00;99146.84;6305364;20;3571142;-54
2022/09/10 04:59:30;;;;;;;;;23.00;23.00;;;;;18.22;100.00;99148.56;6276321;20;2837778;-50
2022/09/10 05:01:59;;;;;;;;;21.50;20.50;;;;;18.30;100.00;99150.47;6277664;20;2846103;-54
2022/09/10 05:04:27;;;;;;;;;28.33;26.00;;;;;18.27;100.00;99139.91;6282968;20;3581475;-49
2022/09/10 05:06:56;;;;;;;;;22.67;22.67;;;;;18.27;100.00;99145.34;6281659;20;3563882;-54
2022/09/10 05:09:29;;;;;;;;;27.67;24.33;;;;;18.41;100.00;99145.66;6285219;20;3582245;-52
2022/09/10 05:11:59;;;;;;;;;26.67;25.00;;;;;18.46;100.00;99131.59;6283539;20;3589875;-53
2022/09/10 05:14:29;;;;;;;;;23.67;23.33;;;;;18.61;100.00;99132.69;6281230;20;3570242;-53
2022/09/10 05:16:58;;;;;;;;;26.00;26.00;;;;;18.56;100.00;99134.19;6283495;20;3582774;-52
2022/09/10 05:19:27;;;;;;;;;26.33;23.00;;;;;18.51;100.00;99129.25;6314535;20;3572192;-51
2022/09/10 05:21:56;;;;;;;;;22.67;22.67;;;;;18.57;100.00;99136.78;6284260;20;3581166;-53
2022/09/10 05:24:26;;;;;;;;;23.33;22.33;;;;;18.48;100.00;99140.41;6284476;20;3568188;-51
2022/09/10 05:26:55;;;;;;;;;24.00;24.00;;;;;18.50;100.00;99138.41;6281210;20;3581476;-53
2022/09/10 05:29:24;;;;;;;;;29.33;27.00;;;;;18.46;100.00;99128.88;6280095;20;3590882;-52
2022/09/10 05:31:53;;;;;;;;;27.00;27.00;;;;;18.57;100.00;99128.59;6283767;20;3582551;-55
2022/09/10 05:34:23;;;;;;;;;21.67;19.67;;;;;18.48;100.00;99132.25;6284513;20;2837788;-55
2022/09/10 05:36:52;;;;;;;;;20.00;19.00;;;;;18.36;100.00;99137.13;6318388;20;3581507;-51
2022/09/10 05:39:20;;;;;;;;;20.67;18.33;;;;;18.53;100.00;99140.81;6283929;20;3564935;-50
2022/09/10 05:41:49;;;;;;;;;19.50;18.00;;;;;18.39;100.00;99141.38;6280770;20;2835670;-54
2022/09/10 05:44:17;;;;;;;;;16.00;14.00;;;;;18.57;100.00;99147.63;6281267;20;2812882;-55
2022/09/10 05:46:47;;;;;;;;;19.50;18.50;;;;;18.35;100.00;99148.13;6282290;20;2839842;-56
2022/09/10 05:49:15;;;;;;;;;20.00;19.00;;;;;18.28;100.00;99142.50;6276995;20;2830597;-55
2022/09/10 05:51:44;;;;;;;;;17.00;17.00;;;;;18.47;100.00;99138.72;6280630;20;2832596;-51
2022/09/10 05:54:12;;;;;;;;;17.33;15.67;;;;;18.47;100.00;99152.31;6283050;20;3556609;-56
2022/09/10 05:56:41;;;;;;;;;17.50;16.50;;;;;18.81;100.00;99146.13;6282312;20;2825526;-54
2022/09/10 05:59:10;;;;;;;;;17.00;17.00;;;;;19.31;100.00;99148.09;6281826;20;2829414;-52
2022/09/10 06:01:38;;;;;;;;;20.50;19.00;;;;;19.27;100.00;99149.44;6280823;20;2834785;-55
2022/09/10 06:04:10;;;;;;;;;18.00;15.00;;;;;19.45;100.00;99161.06;6282530;20;2806568;-56
2022/09/10 06:06:39;;;;;;;;;21.67;21.00;;;;;19.68;100.00;99165.97;6281400;20;2846179;-50
2022/09/10 06:09:08;;;;;;;;;26.33;24.33;;;;;19.82;99.28;99162.59;6313073;20;3580563;-53
2022/09/10 06:11:37;;;;;;;;;26.67;26.67;;;;;19.35;100.00;99173.13;6286637;20;3590847;-54
2022/09/10 06:14:06;;;;;;;;;24.00;21.00;;;;;19.17;100.00;99174.06;6286412;20;3585681;-56
2022/09/10 06:16:34;;;;;;;;;19.67;17.00;;;;;19.07;100.00;99176.91;6277894;20;2500372;-55
2022/09/10 06:19:02;;;;;;;;;15.00;15.00;;;;;19.15;100.00;99176.09;6310435;20;2491963;-54
2022/09/10 06:21:31;;;;;;;;;14.00;14.00;;;;;18.99;100.00;99179.56;6282423;20;3535812;-54
2022/09/10 06:24:00;;;;;;;;;12.00;12.00;;;;;18.88;100.00;99176.25;6277801;20;3530460;-51
2022/09/10 06:26:29;;;;;;;;;19.50;17.50;;;;;18.78;100.00;99176.38;6277464;20;2830477;-56
2022/09/10 06:28:57;;;;;;;;;20.00;19.00;;;;;18.50;100.00;99179.19;6281499;20;2834651;-54
2022/09/10 06:31:26;;;;;;;;;20.67;19.00;;;;;18.67;100.00;99171.16;6285735;20;3560883;-53
2022/09/10 06:33:54;;;;;;;;;15.67;15.67;;;;;18.77;100.00;99167.38;6285634;20;3549334;-53
2022/09/10 06:36:23;;;;;;;;;16.00;16.00;;;;;18.85;100.00;99169.25;6310118;20;2831569;-51
2022/09/10 06:38:54;;;;;;;;;20.50;17.50;;;;;18.94;100.00;99171.03;6279872;20;2837802;-56
2022/09/10 06:41:23;;;;;;;;;16.00;14.00;;;;;19.11;100.00;99176.56;6281544;20;2812901;-54
2022/09/10 06:43:51;;;;;;;;;16.50;14.50;;;;;19.24;100.00;99177.81;6283884;20;2487802;-54
2022/09/10 06:46:20;;;;;;;;;17.00;16.00;;;;;19.08;100.00;99181.31;6281276;20;2831761;-55
2022/09/10 06:49:10;;;;;;;;;13.00;13.00;;;;;19.24;100.00;99182.41;6278158;20;2797118;-55
2022/09/10 06:51:38;;;;;;;;;14.50;13.50;;;;;19.23;100.00;99186.16;6281505;20;2489900;-49
2022/09/10 06:54:07;;;;;;;;;13.00;12.00;;;;;19.40;100.00;99181.66;6280750;20;2669033;-54
2022/09/10 06:56:36;;;;;;;;;14.67;14.67;;;;;19.33;100.00;99186.06;6316333;20;3539294;-55
2022/09/10 06:59:04;;;;;;;;;12.67;12.67;;;;;19.55;100.00;99185.47;6311375;20;2799372;-53
2022/09/10 07:01:32;;;;;;;;;11.33;11.33;;;;;19.43;100.00;99181.31;6311054;20;3513840;-54
2022/09/10 07:04:01;;;;;;;;;12.00;10.67;;;;;19.52;100.00;99178.47;6311787;20;3509738;-50
2022/09/10 07:06:32;;;;;;;;;11.00;11.00;;;;;19.60;100.00;99176.81;6311865;20;3513789;-53
2022/09/10 07:09:04;;;;;;;;;11.00;10.00;;;;;19.34;100.00;99183.16;6317418;20;2783722;-59
2022/09/10 07:11:33;;;;;;;;;11.00;11.00;;;;;19.43;100.00;99182.19;6313593;20;3522145;-60
2022/09/10 07:14:12;;;;;;;;;11.00;10.00;;;;;19.29;100.00;99180.06;6312595;20;3510766;-60
2022/09/10 07:16:43;;;;;;;;;11.67;9.33;;;;;19.58;100.00;99184.28;6313657;20;2776308;-60
2022/09/10 07:19:13;;;;;;;;;11.33;8.67;;;;;19.67;100.00;99189.63;6318650;20;2775328;-60
2022/09/10 07:21:43;;;;;;;;;10.80;9.60;;;;;19.53;100.00;99191.06;6342192;20;2786828;-60
2022/09/10 07:24:13;;;;;;;;;9.67;9.67;;;;;19.59;100.00;99185.97;6284062;20;2777537;-60
2022/09/10 07:26:41;;;;;;;;;9.33;8.67;;;;;19.60;99.27;99190.41;6322674;20;2756520;-61
2022/09/10 07:29:10;;;;;;;;;10.67;10.67;;;;;19.70;99.00;99188.44;6311623;20;2787751;-60
2022/09/10 07:31:40;;;;;;;;;11.67;11.67;;;;;19.76;98.01;99187.78;6314892;20;3515835;-61
2022/09/10 07:34:08;;;;;;;;;9.00;8.00;;;;;19.88;97.47;99202.81;6316363;20;3462732;-61
2022/09/10 07:36:37;;;;;;;;;8.00;8.00;;;;;19.69;97.99;99203.06;6318370;20;2750379;-61
2022/09/10 07:39:05;;;;;;;;;7.67;7.67;;;;;19.65;99.57;99201.66;6314673;20;2747290;-61
2022/09/10 07:41:35;;;;;;;;;6.40;6.40;;;;;19.87;99.07;99203.81;6342983;20;2735664;-61
2022/09/10 07:44:04;;;;;;;;;13.00;10.00;;;;;20.00;100.00;99207.94;6315835;20;3510730;-61
2022/09/10 07:46:33;;;;;;;;;7.60;7.20;;;;;19.85;98.18;99205.00;6339283;20;2747158;-60
2022/09/10 07:49:08;;;;;;;;;10.80;8.20;;;;;19.78;100.00;99207.53;6306647;20;2768002;-61
2022/09/10 07:51:38;;;;;;;;;8.00;7.60;;;;;19.89;97.92;99214.56;6311173;20;2752468;-61
2022/09/10 07:54:07;;;;;;;;;8.20;7.00;;;;;19.84;98.22;99214.19;6304016;20;2745103;-62
2022/09/10 07:56:36;;;;;;;;;8.00;8.00;;;;;19.78;96.71;99218.44;6283263;20;2750257;-61
2022/09/10 07:59:05;;;;;;;;;9.33;9.00;;;;;19.64;95.93;99216.28;6313200;20;2756560;-62
2022/09/10 08:01:33;;;;;;;;;13.67;10.67;;;;;19.75;94.92;99224.22;6322206;20;2788850;-62
2022/09/10 08:04:02;;;;;;;;;9.00;8.00;;;;;19.87;95.75;99224.75;6317560;20;2750306;-62
2022/09/10 08:06:32;;;;;;;;;9.00;7.67;;;;;19.90;94.63;99228.00;6313065;20;2760214;-61
2022/09/10 08:09:08;;;;;;;;;8.00;8.00;;;;;19.95;94.10;99231.06;6338697;20;2741968;-61
2022/09/10 08:11:40;;;;;;;;;7.40;7.00;;;;;19.85;92.17;99230.38;6341307;20;2739936;-62
2022/09/10 08:14:12;;;;;;;;;8.20;8.20;;;;;20.18;92.71;99230.47;6312396;20;2756545;-63
2022/09/10 08:16:41;;;;;;;;;8.40;7.20;;;;;20.25;91.38;99239.69;6309434;20;2734629;-60
2022/09/10 08:19:14;;;;;;;;;7.20;7.00;;;;;20.58;89.91;99243.31;6338676;20;2730519;-61
2022/09/10 08:21:44;;;;;;;;;6.00;6.00;;;;;20.59;91.20;99249.66;6326468;20;2737818;-59
2022/09/10 08:24:12;;;;;;;;;6.33;6.33;;;;;21.02;90.71;99253.03;6316620;20;2746134;-60
2022/09/10 08:26:42;;;;;;;;;5.40;5.40;;;;;21.27;89.82;99248.38;6340939;20;2744092;-61
2022/09/10 08:29:12;;;;;;;;;7.60;7.60;;;;;21.45;87.05;99256.41;6337449;20;2730467;-60
2022/09/10 08:31:42;;;;;;;;;6.40;6.00;;;;;21.21;86.65;99249.09;6340802;20;2736948;-61
2022/09/10 08:34:13;;;;;;;;;7.00;5.67;;;;;20.62;90.51;99246.56;6315701;20;2742999;-60
2022/09/10 08:36:42;;;;;;;;;5.60;5.60;;;;;20.58;91.56;99253.38;6341083;20;2741962;-61
2022/09/10 08:39:13;;;;;;;;;7.40;7.40;;;;;20.37;90.92;99251.09;6308278;20;2748190;-61
2022/09/10 08:41:55;;;;;;;;;4.40;4.40;;;;;20.42;90.87;99253.34;6314477;20;2756594;-60
2022/09/10 08:44:35;;;;;;;;;7.40;6.80;;;;;20.24;90.23;99261.66;6310918;20;2738843;-60
2022/09/10 08:47:52;;;;;;;;;6.20;6.20;;;;;20.15;89.13;99255.34;6312750;20;2732569;-61
2022/09/10 08:50:48;;;;;;;;;3.33;2.67;;;;;20.06;91.08;99248.97;6320029;20;2741906;-61
2022/09/10 08:53:48;;;;;;;;;24.67;23.00;;;;;19.79;93.57;99247.38;6323374;20;3572119;-61
2022/09/10 08:56:22;;;;;;;;;13.00;11.33;;;;;19.56;94.96;99251.66;6289675;20;2788948;-60
2022/09/10 08:59:22;;;;;;;;;11.33;10.00;;;;;19.47;96.25;99251.63;6312395;20;3528341;-59
2022/09/10 09:02:00;;;;;;;;;17.00;17.00;;;;;19.36;99.80;99257.34;6284286;20;2835656;-54
2022/09/10 09:05:00;;;;;;;;;13.00;10.00;;;;;19.25;100.00;99252.19;6285580;20;2790047;-54
2022/09/10 09:07:38;;;;;;;;;10.67;9.33;;;;;19.29;100.00;99264.44;6323994;20;2775289;-57
2022/09/10 09:10:59;;;;;;;;;10.00;10.00;;;;;19.64;100.00;99259.88;6342597;20;2775261;-56
2022/09/10 09:13:56;;;;;;;;;8.00;8.00;;;;;19.37;100.00;99259.06;6311723;20;2750277;-55
2022/09/10 09:16:54;;;;;;;;;9.40;9.40;;;;;19.27;100.00;99253.75;6338064;20;2750729;-56
2022/09/10 09:20:03;;;;;;;;;8.80;7.20;;;;;19.56;100.00;99246.22;6311058;20;2748281;-58
2022/09/10 09:23:11;;;;;;;;;7.00;7.00;;;;;19.52;99.93;99249.28;6314715;20;2741990;-59
2022/09/10 09:26:09;;;;;;;;;7.20;7.20;;;;;19.67;99.54;99243.25;6312048;20;2737772;-59
2022/09/10 09:28:49;;;;;;;;;10.33;9.00;;;;;19.86;100.00;99237.53;6321370;20;2760772;-59
2022/09/10 09:31:32;;;;;;;;;10.50;8.25;;;;;19.77;98.39;99248.56;6345254;20;2774833;-59
2022/09/10 09:34:21;;;;;;;;;8.00;8.00;;;;;20.05;98.68;99246.44;6287845;20;2754420;-59
2022/09/10 09:36:55;;;;;;;;;10.33;8.67;;;;;20.18;95.62;99246.81;6316276;20;2775296;-59
2022/09/10 09:40:05;;;;;;;;;8.00;8.00;;;;;20.51;94.78;99245.00;6316430;20;2739891;-59
2022/09/10 09:42:56;;;;;;;;;9.00;9.00;;;;;20.51;93.72;99245.00;6314718;20;2752371;-59
2022/09/10 09:45:24;;;;;;;;;11.00;11.00;;;;;20.81;92.85;99243.50;6317429;20;2798277;-59
2022/09/10 09:47:53;;;;;;;;;7.67;7.67;;;;;20.57;92.21;99241.63;6320540;20;2733689;-59
2022/09/10 09:50:21;;;;;;;;;10.00;8.00;;;;;20.74;91.40;99242.47;6316356;20;2771478;-60
2022/09/10 09:52:55;;;;;;;;;6.80;6.80;;;;;20.89;90.35;99244.53;6344438;20;2744067;-60
2022/09/10 09:56:09;;;;;;;;;10.00;10.00;;;;;21.59;87.77;99254.81;6285794;20;3503407;-60
2022/09/10 09:58:39;;;;;;;;;13.33;10.33;;;;;22.03;84.37;99249.66;6315449;20;2789874;-60
2022/09/10 10:01:21;;;;;;;;;7.80;7.80;;;;;21.46;87.71;99247.19;6340504;20;2750255;-60
2022/09/10 10:03:53;;;;;;;;;11.00;11.00;;;;;21.59;87.75;99247.50;6282055;20;3516937;-60
2022/09/10 10:06:48;;;;;;;;;10.00;10.00;;;;;21.83;84.74;99242.97;6319004;20;3515880;-60
2022/09/10 10:09:28;;;;;;;;;10.33;10.33;;;;;22.70;84.52;99242.78;6314544;20;3506478;-61
2022/09/10 10:12:07;;;;;;;;;8.60;8.60;;;;;23.56;79.50;99235.94;6342695;20;2744026;-60
2022/09/10 10:14:42;;;;;;;;;11.33;11.00;;;;;23.38;79.50;99233.59;6292905;20;2791950;-61
2022/09/10 10:17:31;;;;;;;;;10.33;8.33;;;;;22.85;80.30;99235.44;6319431;20;2748521;-60
2022/09/10 10:20:12;;;;;;;;;7.33;7.33;;;;;23.28;77.74;99233.03;6318364;20;2747149;-59
2022/09/10 10:22:47;;;;;;;;;8.00;7.00;;;;;23.45;77.28;99228.19;6315835;20;2748190;-61
2022/09/10 10:25:37;;;;;;;;;10.33;9.67;;;;;23.21;78.26;99232.91;6324638;20;2791357;-60
2022/09/10 10:28:24;;;;;;;;;7.00;7.00;;;;;22.68;79.46;99220.22;6340103;20;2737757;-61
2022/09/10 10:30:58;;;;;;;;;8.80;8.80;;;;;23.04;79.40;99230.50;6308213;20;2746223;-60
2022/09/10 10:33:32;;;;;;;;;7.20;6.80;;;;;22.90;77.00;99230.25;6310327;20;2727404;-60
2022/09/10 10:36:24;;;;;;;;;5.00;5.00;;;;;23.14;76.83;99231.09;6338734;20;2742944;-59
2022/09/10 10:39:35;;;;;;;;;8.00;5.67;;;;;23.41;73.51;99235.97;6284519;20;2743999;-60
2022/09/10 10:43:06;;;;;;;;;7.40;5.00;;;;;23.74;71.79;99226.53;6344828;20;2737789;-59
2022/09/10 10:46:04;;;;;;;;;3.80;3.00;;;;;22.76;71.11;99228.34;6309936;20;2750312;-56
2022/09/10 10:49:31;;;;;;;;;4.80;3.60;;;;;23.31;68.93;99232.66;6342812;20;2744071;-61
2022/09/10 10:52:45;;;;;;;;;3.60;3.60;;;;;23.28;68.92;99224.81;6302773;20;2750297;-62
2022/09/10 10:55:59;;;;;;;;;3.00;3.00;;;;;23.29;65.94;99215.53;6314176;20;2728427;-63
2022/09/10 10:58:54;;;;;;;;;4.60;2.00;;;;;23.51;64.83;99221.09;6341939;20;2731507;-64
2022/09/10 11:01:28;;;;;;;;;6.00;4.00;;;;;24.00;62.94;99220.53;6317162;20;2746092;-64
2022/09/10 11:04:34;;;;;;;;;6.60;6.60;;;;;23.78;65.88;99220.47;6339801;20;2743018;-63
2022/09/10 11:07:20;;;;;;;;;2.00;2.00;;;;;23.71;65.63;99205.78;6309926;20;2738799;-63
2022/09/10 11:10:11;;;;;;;;;3.20;3.20;;;;;23.22;65.55;99215.44;6346520;20;2746097;-63
2022/09/10 11:13:02;;;;;;;;;2.40;2.00;;;;;23.14;66.07;99212.78;6341808;20;2741911;-61
2022/09/10 11:15:41;;;;;;;;;3.40;2.20;;;;;23.64;64.54;99210.31;6342435;20;2754509;-63
2022/09/10 11:18:44;;;;;;;;;1.00;1.00;;;;;24.17;63.87;99216.53;6306874;20;2730514;-62
2022/09/10 11:22:02;;;;;;;;;1.80;1.80;;;;;24.07;63.24;99207.75;6340542;20;2741981;-63
2022/09/10 11:24:55;;;;;;;;;0.60;0.60;;;;;24.24;62.90;99211.94;6303879;20;2728472;-64
2022/09/10 11:27:43;;;;;;;;;0.40;0.40;;;;;24.45;61.88;99204.81;6337952;20;2727519;-63
2022/09/10 11:30:16;;;;;;;;;1.20;1.00;;;;;24.59;62.89;99209.34;6340251;20;2727341;-61
2022/09/10 11:33:08;;;;;;;;;0.40;0.40;;;;;24.59;62.30;99209.34;6340652;20;2727358;-60
2022/09/10 11:36:08;;;;;;;;;1.00;1.00;;;;;24.38;61.38;99206.59;6343217;20;2732561;-61
2022/09/10 11:38:56;;;;;;;;;1.00;1.00;;;;;24.67;60.01;99208.38;6338255;20;2720072;-61
2022/09/10 11:41:33;;;;;;;;;2.00;0.60;;;;;24.73;59.56;99213.09;6343144;20;2719017;-59
2022/09/10 11:44:15;;;;;;;;;1.00;1.00;;;;;24.47;57.90;99205.47;6340973;20;2733587;-59
2022/09/10 11:47:46;;;;;;;;;0.60;0.60;;;;;24.56;57.34;99198.78;6339452;20;2725285;-60